sensor_id;sensor_type;location;lat;lon;timestamp;pressure;altitude;pressure_sealevel;temperature;humidity
72414;BME280;60995;52.154;4.498;2023-04-04T00:02:04;103036.50;;;5.35;56.74
72414;BME280;60995;52.154;4.498;2023-04-04T00:04:20;103038.34;;;5.33;56.84
72414;BME280;60995;52.154;4.498;2023-04-04T00:06:37;103036.38;;;5.38;56.44
72414;BME280;60995;52.154;4.498;2023-04-04T00:08:59;103035.38;;;5.42;56.41
72414;BME280;60995;52.154;4.498;2023-04-04T00:11:15;103037.72;;;5.25;57.10
72414;BME280;60995;52.154;4.498;2023-04-04T00:13:32;103033.69;;;5.38;56.80
72414;BME280;60995;52.154;4.498;2023-04-04T00:15:49;103023.09;;;5.34;56.63
72414;BME280;60995;52.154;4.498;2023-04-04T00:18:05;103025.25;;;5.22;55.86
72414;BME280;60995;52.154;4.498;2023-04-04T00:20:21;103030.28;;;5.33;55.95
72414;BME280;60995;52.154;4.498;2023-04-04T00:22:38;103018.50;;;5.37;56.07
72414;BME280;60995;52.154;4.498;2023-04-04T00:24:54;103017.03;;;5.27;56.30
72414;BME280;60995;52.154;4.498;2023-04-04T00:27:10;103021.03;;;5.13;57.09
72414;BME280;60995;52.154;4.498;2023-04-04T00:29:26;103019.22;;;5.14;56.72
72414;BME280;60995;52.154;4.498;2023-04-04T00:31:43;103021.41;;;5.01;56.79
72414;BME280;60995;52.154;4.498;2023-04-04T00:33:59;103028.09;;;5.18;57.05
72414;BME280;60995;52.154;4.498;2023-04-04T00:36:16;103033.94;;;5.02;57.19
72414;BME280;60995;52.154;4.498;2023-04-04T00:38:32;103033.94;;;5.02;57.42
72414;BME280;60995;52.154;4.498;2023-04-04T00:40:49;103035.44;;;4.83;57.74
72414;BME280;60995;52.154;4.498;2023-04-04T00:43:09;103026.69;;;5.04;57.24
72414;BME280;60995;52.154;4.498;2023-04-04T00:45:26;103026.19;;;4.91;57.31
72414;BME280;60995;52.154;4.498;2023-04-04T00:47:42;103034.31;;;4.90;57.94
72414;BME280;60995;52.154;4.498;2023-04-04T00:50:00;103024.75;;;5.09;58.13
72414;BME280;60995;52.154;4.498;2023-04-04T00:52:17;103033.38;;;4.91;57.71
72414;BME280;60995;52.154;4.498;2023-04-04T00:54:34;103017.06;;;4.97;58.19
72414;BME280;60995;52.154;4.498;2023-04-04T00:56:50;103033.56;;;4.85;57.65
72414;BME280;60995;52.154;4.498;2023-04-04T00:59:10;103026.13;;;4.94;57.73
72414;BME280;60995;52.154;4.498;2023-04-04T01:01:26;103021.72;;;4.92;57.96
72414;BME280;60995;52.154;4.498;2023-04-04T01:03:43;103014.56;;;4.91;57.95
72414;BME280;60995;52.154;4.498;2023-04-04T01:06:00;103014.44;;;4.64;58.96
72414;BME280;60995;52.154;4.498;2023-04-04T01:08:20;103010.94;;;4.62;59.25
72414;BME280;60995;52.154;4.498;2023-04-04T01:10:43;103020.09;;;4.56;59.03
72414;BME280;60995;52.154;4.498;2023-04-04T01:13:00;103019.44;;;4.46;59.87
72414;BME280;60995;52.154;4.498;2023-04-04T01:15:19;103014.03;;;4.48;60.54
72414;BME280;60995;52.154;4.498;2023-04-04T01:17:36;103015.84;;;4.47;59.85
72414;BME280;60995;52.154;4.498;2023-04-04T01:20:01;103007.56;;;4.55;59.96
72414;BME280;60995;52.154;4.498;2023-04-04T01:22:22;103013.28;;;4.43;60.58
72414;BME280;60995;52.154;4.498;2023-04-04T01:24:41;103008.97;;;4.37;61.03
72414;BME280;60995;52.154;4.498;2023-04-04T01:26:59;103007.28;;;4.33;60.89
72414;BME280;60995;52.154;4.498;2023-04-04T01:29:16;103010.63;;;4.41;60.59
72414;BME280;60995;52.154;4.498;2023-04-04T01:31:47;103009.13;;;4.31;61.07
72414;BME280;60995;52.154;4.498;2023-04-04T01:34:22;103002.41;;;4.16;61.66
72414;BME280;60995;52.154;4.498;2023-04-04T01:37:12;103009.13;;;4.31;61.81
72414;BME280;60995;52.154;4.498;2023-04-04T01:39:44;103007.56;;;4.24;62.13
72414;BME280;60995;52.154;4.498;2023-04-04T01:42:05;103011.16;;;4.23;62.20
72414;BME280;60995;52.154;4.498;2023-04-04T01:44:23;103019.34;;;4.18;61.80
72414;BME280;60995;52.154;4.498;2023-04-04T01:46:41;103016.03;;;4.08;62.48
72414;BME280;60995;52.154;4.498;2023-04-04T01:48:57;103017.13;;;4.01;62.50
72414;BME280;60995;52.154;4.498;2023-04-04T01:51:14;103021.97;;;4.20;61.96
72414;BME280;60995;52.154;4.498;2023-04-04T01:53:31;103023.19;;;4.09;62.38
72414;BME280;60995;52.154;4.498;2023-04-04T01:55:47;103020.41;;;4.12;62.49
72414;BME280;60995;52.154;4.498;2023-04-04T01:58:04;103027.19;;;3.93;62.64
72414;BME280;60995;52.154;4.498;2023-04-04T02:00:20;103018.47;;;3.85;63.03
72414;BME280;60995;52.154;4.498;2023-04-04T02:02:37;103023.19;;;4.09;62.80
72414;BME280;60995;52.154;4.498;2023-04-04T02:04:53;103012.66;;;4.00;62.44
72414;BME280;60995;52.154;4.498;2023-04-04T02:07:10;103022.56;;;3.98;63.10
72414;BME280;60995;52.154;4.498;2023-04-04T02:09:26;103030.13;;;3.84;63.52
72414;BME280;60995;52.154;4.498;2023-04-04T02:11:43;103027.72;;;3.71;63.70
72414;BME280;60995;52.154;4.498;2023-04-04T02:13:59;103021.16;;;3.85;63.15
72414;BME280;60995;52.154;4.498;2023-04-04T02:16:15;103026.72;;;3.75;63.40
72414;BME280;60995;52.154;4.498;2023-04-04T02:18:32;103019.56;;;3.76;63.52
72414;BME280;60995;52.154;4.498;2023-04-04T02:20:54;103021.09;;;3.86;63.25
72414;BME280;60995;52.154;4.498;2023-04-04T02:23:12;103015.78;;;3.85;63.40
72414;BME280;60995;52.154;4.498;2023-04-04T02:25:28;103015.22;;;3.72;63.70
72414;BME280;60995;52.154;4.498;2023-04-04T02:27:44;103017.81;;;3.75;63.63
72414;BME280;60995;52.154;4.498;2023-04-04T02:30:01;103012.53;;;3.70;63.29
72414;BME280;60995;52.154;4.498;2023-04-04T02:32:17;103010.72;;;3.72;63.80
72414;BME280;60995;52.154;4.498;2023-04-04T02:34:34;103016.94;;;3.74;63.89
72414;BME280;60995;52.154;4.498;2023-04-04T02:36:50;103011.41;;;3.44;64.39
72414;BME280;60995;52.154;4.498;2023-04-04T02:39:06;103009.28;;;3.59;64.59
72414;BME280;60995;52.154;4.498;2023-04-04T02:41:23;103005.66;;;3.60;64.41
72414;BME280;60995;52.154;4.498;2023-04-04T02:43:39;103010.13;;;3.59;64.63
72414;BME280;60995;52.154;4.498;2023-04-04T02:45:55;102994.69;;;3.33;65.19
72414;BME280;60995;52.154;4.498;2023-04-04T02:48:11;103002.50;;;3.42;65.02
72414;BME280;60995;52.154;4.498;2023-04-04T02:50:28;103002.59;;;3.39;64.88
72414;BME280;60995;52.154;4.498;2023-04-04T02:52:44;103006.81;;;3.48;64.76
72414;BME280;60995;52.154;4.498;2023-04-04T02:55:01;103005.81;;;3.54;64.53
72414;BME280;60995;52.154;4.498;2023-04-04T02:57:19;103007.09;;;3.37;64.74
72414;BME280;60995;52.154;4.498;2023-04-04T02:59:36;102998.91;;;3.43;64.92
72414;BME280;60995;52.154;4.498;2023-04-04T03:01:52;102990.00;;;3.41;64.86
72414;BME280;60995;52.154;4.498;2023-04-04T03:04:08;102992.88;;;3.35;64.75
72414;BME280;60995;52.154;4.498;2023-04-04T03:06:25;102987.31;;;3.41;64.97
72414;BME280;60995;52.154;4.498;2023-04-04T03:08:46;102998.22;;;3.35;65.03
72414;BME280;60995;52.154;4.498;2023-04-04T03:11:02;102995.38;;;3.41;64.68
72414;BME280;60995;52.154;4.498;2023-04-04T03:13:19;102991.91;;;3.36;64.76
72414;BME280;60995;52.154;4.498;2023-04-04T03:15:35;102996.66;;;3.61;63.78
72414;BME280;60995;52.154;4.498;2023-04-04T03:17:52;103001.25;;;3.57;63.95
72414;BME280;60995;52.154;4.498;2023-04-04T03:20:10;103001.88;;;3.67;63.94
72414;BME280;60995;52.154;4.498;2023-04-04T03:22:28;103001.59;;;3.79;63.27
72414;BME280;60995;52.154;4.498;2023-04-04T03:24:45;103005.56;;;3.63;63.70
72414;BME280;60995;52.154;4.498;2023-04-04T03:27:01;103003.75;;;3.65;64.08
72414;BME280;60995;52.154;4.498;2023-04-04T03:29:18;103000.06;;;3.69;63.76
72414;BME280;60995;52.154;4.498;2023-04-04T03:31:34;102999.69;;;3.48;64.07
72414;BME280;60995;52.154;4.498;2023-04-04T03:33:50;103000.50;;;3.51;64.56
72414;BME280;60995;52.154;4.498;2023-04-04T03:36:13;103002.41;;;3.47;64.88
72414;BME280;60995;52.154;4.498;2023-04-04T03:38:29;103016.31;;;3.63;64.46
72414;BME280;60995;52.154;4.498;2023-04-04T03:40:46;103010.22;;;3.56;63.97
72414;BME280;60995;52.154;4.498;2023-04-04T03:43:02;103015.25;;;3.34;64.26
72414;BME280;60995;52.154;4.498;2023-04-04T03:45:18;103011.25;;;3.51;64.17
72414;BME280;60995;52.154;4.498;2023-04-04T03:47:35;103015.78;;;3.48;64.08
72414;BME280;60995;52.154;4.498;2023-04-04T03:49:51;103007.16;;;3.36;64.55
72414;BME280;60995;52.154;4.498;2023-04-04T03:52:08;103004.66;;;3.28;64.39
72414;BME280;60995;52.154;4.498;2023-04-04T03:54:26;103003.75;;;3.29;64.29
72414;BME280;60995;52.154;4.498;2023-04-04T03:56:44;103008.41;;;3.21;64.75
72414;BME280;60995;52.154;4.498;2023-04-04T03:59:00;102999.72;;;3.09;65.53
72414;BME280;60995;52.154;4.498;2023-04-04T04:01:18;103001.28;;;3.20;65.91
72414;BME280;60995;52.154;4.498;2023-04-04T04:03:35;102997.38;;;3.33;65.51
72414;BME280;60995;52.154;4.498;2023-04-04T04:05:52;102994.81;;;3.27;65.81
72414;BME280;60995;52.154;4.498;2023-04-04T04:08:08;102993.09;;;3.24;65.51
72414;BME280;60995;52.154;4.498;2023-04-04T04:10:24;102991.53;;;3.16;66.33
72414;BME280;60995;52.154;4.498;2023-04-04T04:12:41;102999.50;;;3.19;66.06
72414;BME280;60995;52.154;4.498;2023-04-04T04:14:57;102997.88;;;3.11;66.66
72414;BME280;60995;52.154;4.498;2023-04-04T04:17:13;102998.78;;;3.12;66.77
72414;BME280;60995;52.154;4.498;2023-04-04T04:19:30;102997.97;;;3.08;66.89
72414;BME280;60995;52.154;4.498;2023-04-04T04:21:47;102999.09;;;2.98;67.23
72414;BME280;60995;52.154;4.498;2023-04-04T04:24:03;102993.69;;;3.00;67.43
72414;BME280;60995;52.154;4.498;2023-04-04T04:26:19;103005.31;;;3.00;67.22
72414;BME280;60995;52.154;4.498;2023-04-04T04:28:36;102999.25;;;2.90;67.77
72414;BME280;60995;52.154;4.498;2023-04-04T04:30:52;102999.09;;;2.98;67.97
72414;BME280;60995;52.154;4.498;2023-04-04T04:33:09;102998.94;;;3.04;67.87
72414;BME280;60995;52.154;4.498;2023-04-04T04:35:25;102996.19;;;3.07;67.58
72414;BME280;60995;52.154;4.498;2023-04-04T04:37:41;102991.78;;;3.05;67.39
72414;BME280;60995;52.154;4.498;2023-04-04T04:39:58;103002.75;;;2.94;68.09
72414;BME280;60995;52.154;4.498;2023-04-04T04:42:16;103007.47;;;2.83;68.48
72414;BME280;60995;52.154;4.498;2023-04-04T04:44:32;103005.53;;;2.91;68.67
72414;BME280;60995;52.154;4.498;2023-04-04T04:46:48;103003.78;;;2.87;68.49
72414;BME280;60995;52.154;4.498;2023-04-04T04:49:05;103007.41;;;2.86;68.99
72414;BME280;60995;52.154;4.498;2023-04-04T04:51:21;103003.78;;;2.87;69.36
72414;BME280;60995;52.154;4.498;2023-04-04T04:53:38;103004.50;;;2.96;69.12
72414;BME280;60995;52.154;4.498;2023-04-04T04:55:54;103003.75;;;2.90;68.93
72414;BME280;60995;52.154;4.498;2023-04-04T04:58:11;103002.94;;;2.86;68.81
72414;BME280;60995;52.154;4.498;2023-04-04T05:00:27;103013.66;;;2.86;69.02
72414;BME280;60995;52.154;4.498;2023-04-04T05:02:44;103015.56;;;2.81;69.06
72414;BME280;60995;52.154;4.498;2023-04-04T05:05:00;103011.22;;;2.75;69.44
72414;BME280;60995;52.154;4.498;2023-04-04T05:07:17;103015.63;;;2.76;69.31
72414;BME280;60995;52.154;4.498;2023-04-04T05:09:33;103016.38;;;2.85;69.44
72414;BME280;60995;52.154;4.498;2023-04-04T05:11:49;103025.56;;;2.73;69.24
72414;BME280;60995;52.154;4.498;2023-04-04T05:14:06;103027.31;;;2.75;69.50
72414;BME280;60995;52.154;4.498;2023-04-04T05:16:24;103021.44;;;2.97;68.83
72414;BME280;60995;52.154;4.498;2023-04-04T05:18:49;103025.72;;;3.06;68.83
72414;BME280;60995;52.154;4.498;2023-04-04T05:21:09;103029.66;;;2.89;68.51
72414;BME280;60995;52.154;4.498;2023-04-04T05:23:29;103034.16;;;2.89;68.76
72414;BME280;60995;52.154;4.498;2023-04-04T05:25:50;103032.34;;;2.91;68.79
72414;BME280;60995;52.154;4.498;2023-04-04T05:28:08;103028.59;;;2.98;68.81
72414;BME280;60995;52.154;4.498;2023-04-04T05:30:25;103026.63;;;3.05;68.72
72414;BME280;60995;52.154;4.498;2023-04-04T05:32:43;103035.59;;;3.05;68.46
72414;BME280;60995;52.154;4.498;2023-04-04T05:35:04;103027.31;;;3.14;67.98
72414;BME280;60995;52.154;4.498;2023-04-04T05:37:24;103032.66;;;3.16;68.03
72414;BME280;60995;52.154;4.498;2023-04-04T05:39:41;103031.56;;;3.25;67.81
72414;BME280;60995;52.154;4.498;2023-04-04T05:41:57;103027.94;;;3.26;67.87
72414;BME280;60995;52.154;4.498;2023-04-04T05:44:14;103033.31;;;3.26;67.61
72414;BME280;60995;52.154;4.498;2023-04-04T05:46:31;103018.84;;;3.33;67.57
72414;BME280;60995;52.154;4.498;2023-04-04T05:48:47;103023.16;;;3.39;66.69
72414;BME280;60995;52.154;4.498;2023-04-04T05:51:05;103034.63;;;3.45;67.30
72414;BME280;60995;52.154;4.498;2023-04-04T05:53:21;103031.75;;;3.53;66.60
72414;BME280;60995;52.154;4.498;2023-04-04T05:55:38;103023.75;;;3.52;66.89
72414;BME280;60995;52.154;4.498;2023-04-04T05:57:54;103032.03;;;3.78;66.10
72414;BME280;60995;52.154;4.498;2023-04-04T06:00:12;103025.72;;;3.81;66.11
72414;BME280;60995;52.154;4.498;2023-04-04T06:02:30;103020.41;;;3.78;65.44
72414;BME280;60995;52.154;4.498;2023-04-04T06:04:47;103029.72;;;3.99;65.31
72414;BME280;60995;52.154;4.498;2023-04-04T06:07:03;103025.69;;;4.16;64.89
72414;BME280;60995;52.154;4.498;2023-04-04T06:09:20;103028.28;;;4.52;64.06
72414;BME280;60995;52.154;4.498;2023-04-04T06:11:36;103022.91;;;4.82;63.33
72414;BME280;60995;52.154;4.498;2023-04-04T06:13:52;103015.63;;;5.13;62.92
72414;BME280;60995;52.154;4.498;2023-04-04T06:16:10;103021.00;;;5.70;61.40
72414;BME280;60995;52.154;4.498;2023-04-04T06:18:26;103014.63;;;6.25;60.01
72414;BME280;60995;52.154;4.498;2023-04-04T06:20:43;103014.31;;;7.50;57.82
72414;BME280;60995;52.154;4.498;2023-04-04T06:22:59;103011.53;;;10.02;49.78
72414;BME280;60995;52.154;4.498;2023-04-04T06:25:19;103002.59;;;11.49;43.84
72414;BME280;60995;52.154;4.498;2023-04-04T06:27:35;103002.69;;;13.91;38.98
72414;BME280;60995;52.154;4.498;2023-04-04T06:29:52;103004.66;;;14.92;36.87
72414;BME280;60995;52.154;4.498;2023-04-04T06:32:11;102997.56;;;16.79;32.88
72414;BME280;60995;52.154;4.498;2023-04-04T06:34:29;102995.09;;;18.69;30.05
72414;BME280;60995;52.154;4.498;2023-04-04T06:36:46;102985.88;;;19.50;27.72
72414;BME280;60995;52.154;4.498;2023-04-04T06:39:02;102984.06;;;21.21;26.22
72414;BME280;60995;52.154;4.498;2023-04-04T06:41:19;102979.97;;;23.35;23.67
72414;BME280;60995;52.154;4.498;2023-04-04T06:43:35;102975.50;;;23.75;21.59
72414;BME280;60995;52.154;4.498;2023-04-04T06:45:51;102974.41;;;23.19;22.22
72414;BME280;60995;52.154;4.498;2023-04-04T06:48:08;102979.41;;;24.47;20.90
72414;BME280;60995;52.154;4.498;2023-04-04T06:50:24;102981.41;;;24.05;20.10
72414;BME280;60995;52.154;4.498;2023-04-04T06:52:44;102987.47;;;23.92;20.83
72414;BME280;60995;52.154;4.498;2023-04-04T06:55:01;102979.50;;;23.98;20.41
72414;BME280;60995;52.154;4.498;2023-04-04T06:57:17;102984.00;;;23.90;20.07
72414;BME280;60995;52.154;4.498;2023-04-04T06:59:34;102979.91;;;25.53;19.08
72414;BME280;60995;52.154;4.498;2023-04-04T07:01:51;102985.91;;;21.48;22.75
72414;BME280;60995;52.154;4.498;2023-04-04T07:04:08;102981.47;;;21.19;23.97
72414;BME280;60995;52.154;4.498;2023-04-04T07:06:27;102982.78;;;22.31;22.58
72414;BME280;60995;52.154;4.498;2023-04-04T07:08:44;102990.09;;;19.74;23.17
72414;BME280;60995;52.154;4.498;2023-04-04T07:13:41;102989.59;;;16.42;28.62
72414;BME280;60995;52.154;4.498;2023-04-04T07:15:58;102999.25;;;17.25;28.00
72414;BME280;60995;52.154;4.498;2023-04-04T07:18:15;103014.22;;;17.97;26.56
72414;BME280;60995;52.154;4.498;2023-04-04T07:20:31;103014.94;;;19.04;24.44
72414;BME280;60995;52.154;4.498;2023-04-04T07:22:50;103009.16;;;21.27;21.29
72414;BME280;60995;52.154;4.498;2023-04-04T07:25:10;103001.56;;;21.57;20.70
72414;BME280;60995;52.154;4.498;2023-04-04T07:27:29;103008.28;;;20.81;22.11
72414;BME280;60995;52.154;4.498;2023-04-04T07:29:46;103007.78;;;18.60;24.50
72414;BME280;60995;52.154;4.498;2023-04-04T07:32:02;103010.09;;;19.56;23.55
72414;BME280;60995;52.154;4.498;2023-04-04T07:34:19;103006.97;;;18.70;24.21
72414;BME280;60995;52.154;4.498;2023-04-04T07:36:35;103008.72;;;17.97;24.72
72414;BME280;60995;52.154;4.498;2023-04-04T07:38:52;103006.44;;;18.02;24.64
72414;BME280;60995;52.154;4.498;2023-04-04T07:41:08;103013.00;;;17.58;25.31
72414;BME280;60995;52.154;4.498;2023-04-04T07:43:26;103011.88;;;17.05;25.85
72414;BME280;60995;52.154;4.498;2023-04-04T07:45:43;103003.19;;;18.71;25.23
72414;BME280;60995;52.154;4.498;2023-04-04T07:47:59;103006.91;;;19.80;23.79
72414;BME280;60995;52.154;4.498;2023-04-04T07:50:18;103006.28;;;19.28;23.32
72414;BME280;60995;52.154;4.498;2023-04-04T07:52:34;103000.22;;;19.24;23.04
72414;BME280;60995;52.154;4.498;2023-04-04T07:54:51;103010.88;;;19.08;23.65
72414;BME280;60995;52.154;4.498;2023-04-04T07:57:07;102993.56;;;19.37;24.99
72414;BME280;60995;52.154;4.498;2023-04-04T07:59:27;102990.50;;;21.21;21.71
72414;BME280;60995;52.154;4.498;2023-04-04T08:01:43;102992.63;;;20.34;22.54
72414;BME280;60995;52.154;4.498;2023-04-04T08:04:02;102979.16;;;22.92;19.80
72414;BME280;60995;52.154;4.498;2023-04-04T08:06:20;102970.31;;;21.75;20.18
72414;BME280;60995;52.154;4.498;2023-04-04T08:08:37;102978.81;;;23.95;19.43
72414;BME280;60995;52.154;4.498;2023-04-04T08:10:56;102977.03;;;26.38;16.53
72414;BME280;60995;52.154;4.498;2023-04-04T08:13:14;102974.56;;;26.43;16.00
72414;BME280;60995;52.154;4.498;2023-04-04T08:15:31;102975.66;;;25.11;17.23
72414;BME280;60995;52.154;4.498;2023-04-04T08:17:47;102973.81;;;25.26;16.96
72414;BME280;60995;52.154;4.498;2023-04-04T08:20:05;102979.75;;;24.92;16.70
72414;BME280;60995;52.154;4.498;2023-04-04T08:22:22;102976.53;;;26.64;14.94
72414;BME280;60995;52.154;4.498;2023-04-04T08:24:39;102980.00;;;25.37;15.44
72414;BME280;60995;52.154;4.498;2023-04-04T08:26:58;102970.41;;;25.71;16.23
72414;BME280;60995;52.154;4.498;2023-04-04T08:29:15;102975.50;;;24.08;17.11
72414;BME280;60995;52.154;4.498;2023-04-04T08:31:32;102973.69;;;21.87;17.82
72414;BME280;60995;52.154;4.498;2023-04-04T08:33:52;102965.03;;;22.69;17.49
72414;BME280;60995;52.154;4.498;2023-04-04T08:36:11;102975.09;;;24.84;16.02
72414;BME280;60995;52.154;4.498;2023-04-04T08:38:29;102962.28;;;25.84;15.32
72414;BME280;60995;52.154;4.498;2023-04-04T08:40:46;102966.53;;;24.54;16.07
72414;BME280;60995;52.154;4.498;2023-04-04T08:43:03;102967.59;;;24.93;16.37
72414;BME280;60995;52.154;4.498;2023-04-04T08:45:22;102970.22;;;22.11;18.56
72414;BME280;60995;52.154;4.498;2023-04-04T08:47:41;102964.69;;;21.67;18.91
72414;BME280;60995;52.154;4.498;2023-04-04T08:49:59;102967.72;;;22.52;17.94
72414;BME280;60995;52.154;4.498;2023-04-04T08:52:24;102971.03;;;24.55;16.25
72414;BME280;60995;52.154;4.498;2023-04-04T08:54:43;102955.50;;;24.30;16.35
72414;BME280;60995;52.154;4.498;2023-04-04T08:57:02;102961.03;;;26.02;14.98
72414;BME280;60995;52.154;4.498;2023-04-04T08:59:19;102971.66;;;20.51;18.82
72414;BME280;60995;52.154;4.498;2023-04-04T09:01:36;102975.44;;;20.50;19.27
72414;BME280;60995;52.154;4.498;2023-04-04T09:03:53;102954.91;;;22.51;17.98
72414;BME280;60995;52.154;4.498;2023-04-04T09:06:10;102963.56;;;23.91;16.35
72414;BME280;60995;52.154;4.498;2023-04-04T09:08:28;102971.91;;;20.95;18.43
72414;BME280;60995;52.154;4.498;2023-04-04T09:10:44;102970.38;;;20.83;18.72
72414;BME280;60995;52.154;4.498;2023-04-04T09:13:02;102968.88;;;23.52;16.34
72414;BME280;60995;52.154;4.498;2023-04-04T09:15:19;102958.69;;;23.85;16.42
72414;BME280;60995;52.154;4.498;2023-04-04T09:17:36;102962.47;;;22.41;17.60
72414;BME280;60995;52.154;4.498;2023-04-04T09:19:52;102977.84;;;20.25;19.27
72414;BME280;60995;52.154;4.498;2023-04-04T09:22:09;102966.50;;;21.22;18.47
72414;BME280;60995;52.154;4.498;2023-04-04T09:24:37;102964.44;;;19.54;20.03
72414;BME280;60995;52.154;4.498;2023-04-04T09:26:55;102958.91;;;21.06;19.12
72414;BME280;60995;52.154;4.498;2023-04-04T09:29:13;102959.28;;;20.93;18.96
72414;BME280;60995;52.154;4.498;2023-04-04T09:31:32;102959.78;;;19.54;20.18
72414;BME280;60995;52.154;4.498;2023-04-04T09:33:49;102976.72;;;19.98;19.66
72414;BME280;60995;52.154;4.498;2023-04-04T09:36:07;102970.00;;;18.22;21.89
72414;BME280;60995;52.154;4.498;2023-04-04T09:38:28;102962.94;;;17.86;22.07
72414;BME280;60995;52.154;4.498;2023-04-04T09:40:48;102965.97;;;18.97;20.83
72414;BME280;60995;52.154;4.498;2023-04-04T09:43:06;102967.44;;;16.56;23.53
72414;BME280;60995;52.154;4.498;2023-04-04T09:45:23;102967.31;;;17.35;22.79
72414;BME280;60995;52.154;4.498;2023-04-04T09:47:43;102968.47;;;19.40;20.23
72414;BME280;60995;52.154;4.498;2023-04-04T09:49:59;102967.72;;;18.98;20.84
72414;BME280;60995;52.154;4.498;2023-04-04T09:52:19;102957.97;;;20.59;19.14
72414;BME280;60995;52.154;4.498;2023-04-04T09:54:36;102957.63;;;18.37;22.18
72414;BME280;60995;52.154;4.498;2023-04-04T09:56:52;102959.53;;;18.87;21.44
72414;BME280;60995;52.154;4.498;2023-04-04T09:59:08;102967.91;;;16.84;23.06
72414;BME280;60995;52.154;4.498;2023-04-04T10:01:25;102968.16;;;16.58;24.13
72414;BME280;60995;52.154;4.498;2023-04-04T10:03:42;102963.78;;;18.60;22.74
72414;BME280;60995;52.154;4.498;2023-04-04T10:06:08;102955.59;;;19.79;20.35
72414;BME280;60995;52.154;4.498;2023-04-04T10:08:28;102967.66;;;20.36;19.34
72414;BME280;60995;52.154;4.498;2023-04-04T10:10:49;102962.25;;;18.06;22.15
72414;BME280;60995;52.154;4.498;2023-04-04T10:13:27;102964.84;;;18.07;21.67
72414;BME280;60995;52.154;4.498;2023-04-04T10:15:45;102972.50;;;16.15;24.43
72414;BME280;60995;52.154;4.498;2023-04-04T10:18:03;102966.41;;;16.34;25.20
72414;BME280;60995;52.154;4.498;2023-04-04T10:20:20;102958.31;;;17.87;23.45
72414;BME280;60995;52.154;4.498;2023-04-04T10:22:37;102970.88;;;16.01;25.10
72414;BME280;60995;52.154;4.498;2023-04-04T10:24:55;102955.06;;;17.93;22.84
72414;BME280;60995;52.154;4.498;2023-04-04T10:27:13;102961.09;;;18.08;22.56
72414;BME280;60995;52.154;4.498;2023-04-04T10:29:30;102952.97;;;17.64;23.72
72414;BME280;60995;52.154;4.498;2023-04-04T10:31:49;102954.78;;;18.17;22.55
72414;BME280;60995;52.154;4.498;2023-04-04T10:34:20;102945.50;;;20.17;20.78
72414;BME280;60995;52.154;4.498;2023-04-04T10:37:04;102945.50;;;21.47;20.43
72414;BME280;60995;52.154;4.498;2023-04-04T10:39:32;102930.44;;;23.16;18.03
72414;BME280;60995;52.154;4.498;2023-04-04T10:41:54;102954.44;;;19.43;20.92
72414;BME280;60995;52.154;4.498;2023-04-04T10:44:28;102945.84;;;18.56;21.77
72414;BME280;60995;52.154;4.498;2023-04-04T10:46:52;102941.69;;;18.31;22.18
72414;BME280;60995;52.154;4.498;2023-04-04T10:49:09;102941.25;;;18.66;21.81
72414;BME280;60995;52.154;4.498;2023-04-04T10:51:29;102928.91;;;18.20;22.76
72414;BME280;60995;52.154;4.498;2023-04-04T10:53:46;102917.47;;;17.73;23.76
72414;BME280;60995;52.154;4.498;2023-04-04T10:56:04;102925.56;;;16.54;24.97
72414;BME280;60995;52.154;4.498;2023-04-04T10:58:22;102920.75;;;18.40;23.32
72414;BME280;60995;52.154;4.498;2023-04-04T11:00:58;102921.75;;;17.12;24.51
72414;BME280;60995;52.154;4.498;2023-04-04T11:03:14;102905.63;;;17.93;23.65
72414;BME280;60995;52.154;4.498;2023-04-04T11:05:35;102910.69;;;17.77;23.73
72414;BME280;60995;52.154;4.498;2023-04-04T11:07:59;102910.97;;;18.97;22.40
72414;BME280;60995;52.154;4.498;2023-04-04T11:10:22;102910.44;;;18.01;22.60
72414;BME280;60995;52.154;4.498;2023-04-04T11:12:42;102911.38;;;15.92;24.77
72414;BME280;60995;52.154;4.498;2023-04-04T11:15:08;102916.00;;;15.67;24.25
72414;BME280;60995;52.154;4.498;2023-04-04T11:17:53;102905.88;;;17.48;23.99
72414;BME280;60995;52.154;4.498;2023-04-04T11:22:44;102907.66;;;16.27;24.98
72414;BME280;60995;52.154;4.498;2023-04-04T11:25:38;102906.94;;;16.80;24.08
72414;BME280;60995;52.154;4.498;2023-04-04T11:27:56;102903.50;;;16.78;24.24
72414;BME280;60995;52.154;4.498;2023-04-04T11:30:13;102887.59;;;17.79;23.66
72414;BME280;60995;52.154;4.498;2023-04-04T11:32:41;102880.41;;;17.88;23.16
72414;BME280;60995;52.154;4.498;2023-04-04T11:34:59;102886.88;;;19.78;21.46
72414;BME280;60995;52.154;4.498;2023-04-04T11:37:15;102880.84;;;18.96;22.18
72414;BME280;60995;52.154;4.498;2023-04-04T11:39:48;102881.41;;;17.87;23.00
72414;BME280;60995;52.154;4.498;2023-04-04T11:42:14;102884.50;;;15.50;25.81
72414;BME280;60995;52.154;4.498;2023-04-04T11:44:33;102887.66;;;16.82;25.05
72414;BME280;60995;52.154;4.498;2023-04-04T11:47:08;102872.41;;;17.00;26.13
72414;BME280;60995;52.154;4.498;2023-04-04T11:49:27;102871.66;;;16.98;27.07
72414;BME280;60995;52.154;4.498;2023-04-04T11:51:48;102877.25;;;15.96;26.06
72414;BME280;60995;52.154;4.498;2023-04-04T11:54:12;102878.84;;;14.81;26.77
72414;BME280;60995;52.154;4.498;2023-04-04T11:56:35;102880.41;;;14.96;26.42
72414;BME280;60995;52.154;4.498;2023-04-04T11:58:51;102884.97;;;15.44;25.76
72414;BME280;60995;52.154;4.498;2023-04-04T12:01:07;102880.63;;;15.17;26.40
72414;BME280;60995;52.154;4.498;2023-04-04T12:03:27;102873.78;;;15.12;26.37
72414;BME280;60995;52.154;4.498;2023-04-04T12:05:46;102878.91;;;14.92;26.44
72414;BME280;60995;52.154;4.498;2023-04-04T12:08:06;102858.00;;;14.80;27.37
72414;BME280;60995;52.154;4.498;2023-04-04T12:10:24;102876.91;;;14.20;27.44
72414;BME280;60995;52.154;4.498;2023-04-04T12:12:41;102868.28;;;14.76;27.13
72414;BME280;60995;52.154;4.498;2023-04-04T12:14:57;102871.72;;;15.62;26.48